Time;durP1;ratioP1;P1;durP2;ratioP2;P2;SDS_P1;SDS_P2;PMS_P1;PMS_P2;Temp;Humidity;BMP_temperature;BMP_pressure;BME280_temperature;BME280_humidity;BME280_pressure;Samples;Min_cycle;Max_cycle;Signal;HPM_P1;HPM_P2
2023/03/26 00:01:22;;;;;;;7.85;2.22;;;8.00;99.90;;;;;;5072730;28;20059;-64
2023/03/26 00:03:52;;;;;;;5.15;1.60;;;8.00;99.90;;;;;;5072449;28;20056;-65
2023/03/26 00:06:22;;;;;;;9.60;2.10;;;7.90;99.90;;;;;;5055082;28;20064;-66
2023/03/26 00:08:49;;;;;;;6.35;1.63;;;7.90;99.90;;;;;;5073077;28;20048;-64
2023/03/26 00:11:19;;;;;;;7.63;2.35;;;7.90;99.90;;;;;;5072151;28;20044;-65
2023/03/26 00:13:47;;;;;;;8.45;2.03;;;7.90;99.90;;;;;;5071363;28;20067;-65
2023/03/26 00:16:16;;;;;;;9.85;2.33;;;8.00;99.90;;;;;;5072546;28;20056;-65
2023/03/26 00:18:50;;;;;;;8.90;2.58;;;8.00;99.90;;;;;;5054718;28;20049;-65
2023/03/26 00:21:26;;;;;;;5.05;2.10;;;8.00;99.90;;;;;;5072380;28;20068;-65
2023/03/26 00:23:58;;;;;;;11.77;2.60;;;8.00;99.90;;;;;;5071275;28;20106;-65
2023/03/26 00:26:33;;;;;;;5.85;1.98;;;8.00;99.90;;;;;;5072248;28;20049;-65
2023/03/26 00:29:08;;;;;;;10.43;2.60;;;8.00;99.90;;;;;;5072335;28;20044;-65
2023/03/26 00:31:38;;;;;;;8.10;2.90;;;8.00;99.90;;;;;;5071751;28;20037;-65
2023/03/26 00:34:05;;;;;;;8.18;1.92;;;8.00;99.90;;;;;;5071966;28;20052;-65
2023/03/26 00:36:34;;;;;;;7.90;2.45;;;8.00;99.90;;;;;;5072067;28;20531;-64
2023/03/26 00:39:04;;;;;;;8.07;1.92;;;8.00;99.90;;;;;;5071334;28;20052;-65
2023/03/26 00:41:31;;;;;;;7.25;3.00;;;8.00;99.90;;;;;;5071973;28;20388;-64
2023/03/26 00:43:58;;;;;;;6.20;3.20;;;8.00;99.90;;;;;;5071777;28;20439;-64
2023/03/26 00:46:28;;;;;;;7.53;2.50;;;8.00;99.90;;;;;;5070749;28;20063;-64
2023/03/26 00:49:02;;;;;;;10.18;3.78;;;8.20;99.90;;;;;;5072034;28;20048;-64
2023/03/26 00:51:29;;;;;;;9.10;2.83;;;8.00;99.90;;;;;;5071528;28;20049;-64
2023/03/26 00:53:57;;;;;;;7.50;2.50;;;8.10;99.90;;;;;;5070394;28;20476;-65
2023/03/26 00:56:24;;;;;;;7.88;2.60;;;8.10;99.90;;;;;;5070992;28;20052;-65
2023/03/26 00:58:54;;;;;;;6.22;2.05;;;8.20;99.90;;;;;;5072117;28;20051;-65
2023/03/26 01:01:26;;;;;;;5.20;2.72;;;8.20;99.90;;;;;;5071414;28;20076;-66
2023/03/26 01:04:00;;;;;;;9.18;2.05;;;8.10;99.90;;;;;;5071426;28;20484;-65
2023/03/26 01:06:34;;;;;;;5.05;1.75;;;8.10;99.90;;;;;;5054274;28;20052;-65
2023/03/26 01:09:14;;;;;;;8.55;2.03;;;8.10;99.90;;;;;;5071693;28;20132;-64
2023/03/26 01:11:41;;;;;;;6.30;1.70;;;8.10;99.90;;;;;;5065537;28;20052;-65
2023/03/26 01:14:22;;;;;;;7.63;2.25;;;8.10;99.90;;;;;;5070985;28;20495;-65
2023/03/26 01:17:01;;;;;;;8.88;2.22;;;8.10;99.90;;;;;;5072230;28;20403;-66
2023/03/26 01:19:55;;;;;;;8.88;2.08;;;8.00;99.90;;;;;;5071120;28;20056;-65
2023/03/26 01:22:26;;;;;;;8.93;2.22;;;8.00;99.90;;;;;;5069720;28;20094;-66
2023/03/26 01:24:55;;;;;;;7.90;2.40;;;8.10;99.90;;;;;;5070870;28;20088;-65
2023/03/26 01:27:37;;;;;;;7.88;2.40;;;8.00;99.90;;;;;;5071511;28;20056;-66
2023/03/26 01:30:44;;;;;;;7.57;2.15;;;8.00;99.90;;;;;;5071460;28;20049;-64
2023/03/26 01:33:28;;;;;;;8.75;2.30;;;7.90;99.90;;;;;;5053321;28;20145;-65
2023/03/26 01:36:18;;;;;;;7.03;2.67;;;7.90;99.90;;;;;;5071064;28;20368;-65
2023/03/26 01:39:20;;;;;;;8.43;2.10;;;7.90;99.90;;;;;;5071295;28;20044;-64
2023/03/26 01:42:09;;;;;;;7.20;1.95;;;7.90;99.90;;;;;;5070899;28;20662;-65
2023/03/26 01:45:06;;;;;;;7.75;2.85;;;7.90;99.90;;;;;;5070906;28;20052;-64
2023/03/26 01:47:33;;;;;;;8.20;2.25;;;8.00;99.90;;;;;;5071258;28;20064;-65
2023/03/26 01:49:59;;;;;;;10.52;1.98;;;7.90;99.90;;;;;;5071073;28;20049;-65
2023/03/26 01:52:26;;;;;;;8.90;2.70;;;8.00;99.90;;;;;;5070671;28;20056;-65
2023/03/26 01:54:54;;;;;;;11.25;2.08;;;8.00;99.90;;;;;;5053511;28;20741;-65
2023/03/26 01:57:36;;;;;;;7.57;2.20;;;8.00;99.90;;;;;;5053177;28;20048;-66
2023/03/26 02:00:26;;;;;;;7.50;1.70;;;8.00;99.90;;;;;;5053382;28;20056;-65
2023/03/26 02:03:02;;;;;;;;;;;7.90;99.90;;;;;;5071435;28;20052;-66
2023/03/26 02:05:42;;;;;;;7.68;2.00;;;8.00;99.90;;;;;;5069964;28;19975;-65
2023/03/26 02:08:11;;;;;;;4.40;1.90;;;7.90;99.90;;;;;;5071256;28;20049;-65
2023/03/26 02:10:45;;;;;;;6.47;1.92;;;7.90;99.90;;;;;;5071004;28;20453;-65
2023/03/26 02:13:13;;;;;;;7.55;2.45;;;7.80;99.90;;;;;;5070472;28;20044;-65
2023/03/26 02:15:40;;;;;;;7.55;3.05;;;7.80;99.90;;;;;;5071097;28;20102;-65
2023/03/26 02:18:09;;;;;;;5.28;1.83;;;7.80;99.90;;;;;;5053494;28;20048;-65
2023/03/26 02:20:36;;;;;;;6.47;2.10;;;7.80;99.90;;;;;;5064797;28;20126;-65
2023/03/26 02:23:02;;;;;;;9.13;2.40;;;7.70;99.90;;;;;;5050562;28;20063;-64
2023/03/26 02:25:29;;;;;;;7.22;1.88;;;7.80;99.90;;;;;;5051354;28;20060;-65
2023/03/26 02:27:55;;;;;;;4.22;1.80;;;7.80;99.90;;;;;;5050716;28;20060;-64
2023/03/26 02:30:24;;;;;;;6.85;2.28;;;7.80;99.90;;;;;;5053985;28;20048;-65
2023/03/26 02:32:57;;;;;;;8.13;2.50;;;7.80;99.90;;;;;;5070515;28;20060;-65
2023/03/26 02:35:24;;;;;;;6.60;2.03;;;7.80;99.90;;;;;;5070843;28;20048;-65
2023/03/26 02:37:53;;;;;;;8.52;2.50;;;7.80;99.90;;;;;;5071116;28;20055;-65
2023/03/26 02:40:21;;;;;;;6.70;2.03;;;7.80;99.90;;;;;;5049789;28;20473;-65
2023/03/26 02:42:48;;;;;;;7.53;2.60;;;7.80;99.90;;;;;;5050372;28;20362;-65
2023/03/26 02:45:14;;;;;;;7.38;2.60;;;7.80;99.90;;;;;;5050974;28;20088;-65
2023/03/26 02:47:42;;;;;;;6.35;2.42;;;7.90;99.90;;;;;;5053111;28;20060;-65
2023/03/26 02:50:15;;;;;;;5.05;2.75;;;7.70;99.90;;;;;;5055201;28;20118;-65
2023/03/26 02:52:42;;;;;;;7.38;2.08;;;7.80;99.90;;;;;;5073795;28;20098;-65
2023/03/26 02:55:09;;;;;;;8.10;2.47;;;7.90;99.90;;;;;;5074501;28;20052;-65
2023/03/26 02:57:36;;;;;;;6.20;2.35;;;7.80;99.90;;;;;;5074183;28;20041;-65
2023/03/26 03:00:12;;;;;;;5.45;2.20;;;7.80;99.90;;;;;;5072951;28;20049;-65
2023/03/26 03:02:39;;;;;;;8.50;2.40;;;7.70;99.90;;;;;;5053732;28;20453;-64
2023/03/26 03:05:07;;;;;;;4.78;2.50;;;7.80;99.90;;;;;;5054170;28;20350;-64
2023/03/26 03:07:37;;;;;;;7.53;2.50;;;7.70;99.90;;;;;;5053735;28;20059;-64
2023/03/26 03:10:07;;;;;;;7.03;2.17;;;7.70;99.90;;;;;;5054057;28;20341;-65
2023/03/26 03:12:34;;;;;;;8.90;2.30;;;7.80;99.90;;;;;;5073348;28;20056;-65
2023/03/26 03:15:00;;;;;;;7.72;2.13;;;7.80;99.90;;;;;;5073839;28;20049;-65
2023/03/26 03:17:27;;;;;;;5.90;2.47;;;7.70;99.90;;;;;;5073646;28;20109;-65
2023/03/26 03:20:00;;;;;;;8.35;2.17;;;7.70;99.90;;;;;;5073259;28;20052;-66
2023/03/26 03:22:26;;;;;;;5.45;2.20;;;7.70;99.90;;;;;;5053167;28;20057;-63
2023/03/26 03:24:56;;;;;;;6.00;2.10;;;7.60;99.90;;;;;;5035800;28;20396;-65
2023/03/26 03:27:24;;;;;;;7.38;2.05;;;7.60;99.90;;;;;;5019504;28;20053;-64
2023/03/26 03:29:55;;;;;;;9.13;3.00;;;7.50;99.90;;;;;;5036024;28;20052;-65
2023/03/26 03:32:22;;;;;;;8.45;2.38;;;7.50;99.90;;;;;;5053739;28;20156;-64
2023/03/26 03:34:49;;;;;;;3.90;2.08;;;7.40;99.90;;;;;;5053564;28;20045;-64
2023/03/26 03:37:25;;;;;;;5.93;2.40;;;7.40;99.90;;;;;;5053496;28;20110;-65
2023/03/26 03:39:53;;;;;;;7.93;2.10;;;7.40;99.90;;;;;;5053317;28;20477;-64
2023/03/26 03:42:19;;;;;;;6.50;2.00;;;7.40;99.90;;;;;;5054103;28;20071;-65
2023/03/26 03:44:46;;;;;;;5.80;2.05;;;7.40;99.90;;;;;;5073266;28;20048;-64
2023/03/26 03:47:12;;;;;;;5.53;2.10;;;7.30;99.90;;;;;;5073284;28;20057;-64
2023/03/26 03:49:39;;;;;;;6.95;2.35;;;7.40;99.90;;;;;;5073311;28;20048;-64
2023/03/26 03:52:09;;;;;;;7.45;3.30;;;7.40;99.90;;;;;;5054908;28;20045;-65
2023/03/26 03:54:45;;;;;;;6.82;2.53;;;7.40;99.90;;;;;;5052782;28;20512;-65
2023/03/26 03:57:12;;;;;;;8.88;3.10;;;7.40;99.90;;;;;;5052798;28;20045;-66
2023/03/26 03:59:39;;;;;;;6.47;2.40;;;7.40;99.90;;;;;;5053143;28;20049;-65
2023/03/26 04:02:05;;;;;;;6.95;2.60;;;7.40;99.90;;;;;;5069878;28;20452;-64
2023/03/26 04:04:31;;;;;;;7.50;2.40;;;7.50;99.90;;;;;;5073511;28;20071;-64
2023/03/26 04:06:57;;;;;;;8.05;3.17;;;7.50;99.90;;;;;;5073300;28;20063;-65
2023/03/26 04:09:24;;;;;;;6.70;2.97;;;7.50;99.90;;;;;;5055629;28;20078;-64
2023/03/26 04:11:51;;;;;;;8.65;3.20;;;7.60;99.90;;;;;;5054462;28;20048;-65
2023/03/26 04:14:17;;;;;;;6.30;2.72;;;7.60;99.90;;;;;;5072707;28;20577;-65
2023/03/26 04:16:44;;;;;;;7.03;2.83;;;7.60;99.90;;;;;;5055318;28;20074;-65
2023/03/26 04:19:10;;;;;;;6.78;2.92;;;7.60;99.90;;;;;;5054775;28;20083;-65
2023/03/26 04:21:36;;;;;;;7.40;2.80;;;7.60;99.90;;;;;;5045829;28;20079;-64
2023/03/26 04:24:10;;;;;;;7.90;2.90;;;7.70;99.90;;;;;;5072285;28;20538;-64
2023/03/26 04:26:37;;;;;;;10.45;3.45;;;7.60;99.90;;;;;;5054619;28;20053;-64
2023/03/26 04:29:10;;;;;;;7.93;2.95;;;7.70;99.90;;;;;;5055290;28;20060;-64
2023/03/26 04:31:37;;;;;;;7.68;2.65;;;7.70;99.90;;;;;;5063774;28;20048;-65
2023/03/26 04:34:13;;;;;;;5.97;2.63;;;7.70;99.90;;;;;;5054633;28;20044;-64
2023/03/26 04:36:41;;;;;;;9.10;3.08;;;7.70;99.90;;;;;;5054928;28;20040;-64
2023/03/26 04:39:15;;;;;;;7.68;3.50;;;7.70;99.90;;;;;;5054793;28;20106;-66
2023/03/26 04:41:41;;;;;;;7.72;3.05;;;7.70;99.90;;;;;;5071224;28;20060;-64
2023/03/26 04:44:08;;;;;;;7.25;3.20;;;7.80;99.90;;;;;;5054147;28;20415;-64
2023/03/26 04:46:34;;;;;;;6.20;3.38;;;7.70;99.90;;;;;;5054325;28;20053;-65
2023/03/26 04:49:00;;;;;;;5.93;2.92;;;7.70;99.90;;;;;;5072304;28;20053;-65
2023/03/26 04:51:37;;;;;;;9.55;2.70;;;7.70;99.90;;;;;;5053726;28;20049;-64
2023/03/26 04:54:06;;;;;;;8.95;3.40;;;7.70;99.90;;;;;;5054059;28;20075;-65
2023/03/26 04:56:51;;;;;;;9.18;3.72;;;7.60;99.90;;;;;;5030184;28;20074;-65
2023/03/26 04:59:29;;;;;;;10.15;3.75;;;7.60;99.90;;;;;;5054762;28;20377;-64
2023/03/26 05:01:58;;;;;;;7.80;3.47;;;7.60;99.90;;;;;;5044981;28;20048;-64
2023/03/26 05:04:35;;;;;;;11.13;3.88;;;7.60;99.90;;;;;;5072041;28;20048;-65
2023/03/26 05:07:02;;;;;;;8.75;3.30;;;7.70;99.90;;;;;;5054403;28;20071;-64
2023/03/26 05:09:37;;;;;;;11.90;3.75;;;7.70;99.90;;;;;;5071113;28;20372;-64
2023/03/26 05:12:03;;;;;;;9.40;3.33;;;7.70;99.90;;;;;;5045247;28;20049;-64
2023/03/26 05:14:31;;;;;;;6.85;3.33;;;7.70;99.90;;;;;;5054145;28;20131;-64
2023/03/26 05:16:57;;;;;;;9.60;3.17;;;7.80;99.90;;;;;;5054247;28;20443;-65
2023/03/26 05:19:23;;;;;;;11.05;3.83;;;7.80;99.90;;;;;;5053636;28;20136;-64
2023/03/26 05:21:50;;;;;;;9.57;3.80;;;7.80;99.90;;;;;;5053507;28;20052;-65
2023/03/26 05:24:19;;;;;;;9.07;3.63;;;7.70;99.90;;;;;;5071834;28;20052;-64
2023/03/26 05:26:47;;;;;;;8.88;4.38;;;7.80;99.90;;;;;;5053732;28;20048;-65
2023/03/26 05:29:16;;;;;;;9.00;3.78;;;7.80;99.90;;;;;;5054287;28;20110;-64
2023/03/26 05:31:43;;;;;;;8.05;3.70;;;7.90;99.90;;;;;;5052737;28;20052;-64
2023/03/26 05:34:09;;;;;;;9.25;4.00;;;7.90;99.90;;;;;;5054055;28;20060;-64
2023/03/26 05:36:36;;;;;;;7.90;3.63;;;7.90;99.90;;;;;;5053824;28;20045;-65
2023/03/26 05:39:09;;;;;;;9.32;4.10;;;7.90;99.90;;;;;;5053848;28;20175;-65
2023/03/26 05:41:35;;;;;;;7.10;4.53;;;8.00;99.90;;;;;;5045851;28;20048;-65
2023/03/26 05:44:01;;;;;;;6.65;3.38;;;8.00;99.90;;;;;;5053616;28;20044;-65
2023/03/26 05:46:27;;;;;;;9.43;3.75;;;8.00;99.90;;;;;;5053880;28;20051;-65
2023/03/26 05:48:54;;;;;;;8.93;3.60;;;8.00;99.90;;;;;;5071651;28;20041;-64
2023/03/26 05:51:22;;;;;;;11.50;3.83;;;8.00;99.90;;;;;;5051794;28;20059;-65
2023/03/26 05:53:48;;;;;;;7.82;3.65;;;7.90;99.90;;;;;;5053808;28;20110;-65
2023/03/26 05:56:15;;;;;;;8.48;3.40;;;7.90;99.90;;;;;;5071508;28;20120;-65
2023/03/26 05:58:42;;;;;;;6.63;3.50;;;7.90;99.90;;;;;;5054170;28;20048;-64
2023/03/26 06:01:18;;;;;;;8.20;3.63;;;7.90;99.90;;;;;;5053416;28;20055;-64
2023/03/26 06:03:45;;;;;;;8.68;3.67;;;7.90;99.90;;;;;;5053412;28;20048;-65
2023/03/26 06:06:20;;;;;;;8.55;3.97;;;7.90;99.90;;;;;;5053723;28;20494;-63
2023/03/26 06:08:49;;;;;;;9.25;3.58;;;7.90;99.90;;;;;;5053817;28;20052;-64
2023/03/26 06:11:18;;;;;;;10.48;3.55;;;7.90;99.90;;;;;;5053411;28;20044;-65
2023/03/26 06:13:45;;;;;;;8.70;3.53;;;7.90;99.90;;;;;;5053450;28;20097;-64
2023/03/26 06:16:13;;;;;;;9.43;3.75;;;7.80;99.90;;;;;;5053406;28;20049;-64
2023/03/26 06:18:39;;;;;;;6.40;3.60;;;7.80;99.90;;;;;;5052559;28;20045;-65
2023/03/26 06:21:07;;;;;;;9.70;3.10;;;7.80;99.90;;;;;;5034750;28;20106;-65
2023/03/26 06:23:33;;;;;;;8.93;3.30;;;7.80;99.90;;;;;;5037357;28;20056;-65
2023/03/26 06:26:00;;;;;;;7.20;3.55;;;7.70;99.90;;;;;;5037594;28;20408;-65
2023/03/26 06:28:26;;;;;;;8.20;3.50;;;7.80;99.90;;;;;;5037709;28;20059;-65
2023/03/26 06:30:52;;;;;;;6.82;2.97;;;7.70;99.90;;;;;;5036803;28;20041;-65
2023/03/26 06:33:19;;;;;;;7.07;3.70;;;7.80;99.90;;;;;;5037332;28;20045;-65
2023/03/26 06:35:45;;;;;;;13.63;3.58;;;7.80;99.90;;;;;;5021175;28;20048;-65
2023/03/26 06:38:12;;;;;;;10.68;4.55;;;7.80;99.90;;;;;;5037476;28;20381;-65
2023/03/26 06:40:38;;;;;;;9.88;3.40;;;7.80;99.90;;;;;;5054836;28;20060;-65
2023/03/26 06:43:04;;;;;;;7.93;3.22;;;7.80;99.90;;;;;;5037167;28;20049;-65
2023/03/26 06:45:32;;;;;;;11.10;3.65;;;7.80;99.90;;;;;;5020957;28;20123;-65
2023/03/26 06:47:59;;;;;;;11.05;3.30;;;7.80;99.90;;;;;;5036840;28;20052;-64
2023/03/26 06:50:26;;;;;;;9.30;2.90;;;7.80;99.90;;;;;;5036393;28;20049;-65
2023/03/26 06:52:55;;;;;;;9.05;3.17;;;7.80;99.90;;;;;;5054537;28;20098;-65
2023/03/26 06:55:23;;;;;;;10.73;3.13;;;7.80;99.90;;;;;;5054011;28;20037;-65
2023/03/26 06:57:51;;;;;;;9.02;2.95;;;7.80;99.90;;;;;;5036410;28;20048;-64
2023/03/26 07:00:19;;;;;;;10.25;3.60;;;7.90;99.90;;;;;;5033267;28;20119;-64
2023/03/26 07:02:46;;;;;;;12.57;3.20;;;7.80;99.90;;;;;;5035456;28;20068;-64
2023/03/26 07:05:13;;;;;;;11.60;2.72;;;7.80;99.90;;;;;;5019914;28;20045;-64
2023/03/26 07:07:39;;;;;;;9.70;2.88;;;7.80;99.90;;;;;;5036226;28;20045;-65
2023/03/26 07:10:09;;;;;;;8.85;2.70;;;7.90;99.90;;;;;;5052994;28;20051;-64
2023/03/26 07:12:36;;;;;;;13.20;3.65;;;7.90;99.90;;;;;;5035297;28;20044;-64
2023/03/26 07:15:03;;;;;;;15.93;4.15;;;8.00;99.90;;;;;;5044019;28;20059;-64
2023/03/26 07:17:29;;;;;;;11.35;2.53;;;8.00;99.90;;;;;;5035332;28;20063;-64
2023/03/26 07:19:57;;;;;;;10.73;2.70;;;8.00;99.90;;;;;;5056371;28;20420;-65
2023/03/26 07:22:24;;;;;;;8.15;2.67;;;8.00;99.90;;;;;;5069796;28;20052;-64
2023/03/26 07:24:51;;;;;;;11.27;2.42;;;8.00;99.90;;;;;;5063194;28;20044;-65
2023/03/26 07:27:33;;;;;;;14.80;3.58;;;8.10;99.90;;;;;;5064442;28;20339;-63
2023/03/26 07:30:09;;;;;;;18.38;3.75;;;8.10;99.90;;;;;;5064504;28;20072;-64
2023/03/26 07:32:53;;;;;;;14.45;2.50;;;8.10;99.90;;;;;;5071287;28;20048;-64
2023/03/26 07:35:41;;;;;;;13.10;3.13;;;8.00;99.90;;;;;;5074106;28;20056;-64
2023/03/26 07:38:30;;;;;;;21.40;2.97;;;8.10;99.90;;;;;;5073565;28;20052;-64
2023/03/26 07:41:14;;;;;;;14.85;3.10;;;8.00;99.90;;;;;;5072215;28;20056;-64
2023/03/26 07:44:18;;;;;;;15.60;3.38;;;8.10;99.90;;;;;;5072582;28;20595;-63
2023/03/26 07:46:46;;;;;;;16.02;3.03;;;8.10;99.90;;;;;;5071517;28;20048;-64
2023/03/26 07:49:13;;;;;;;16.30;3.05;;;8.10;99.90;;;;;;5063540;28;20045;-64
2023/03/26 07:51:40;;;;;;;13.00;3.50;;;8.10;99.90;;;;;;5071920;28;20380;-63
2023/03/26 07:54:10;;;;;;;14.70;3.17;;;8.20;99.90;;;;;;5072425;28;20051;-64
2023/03/26 07:56:54;;;;;;;15.98;3.65;;;8.20;99.90;;;;;;5061611;28;20217;-64
2023/03/26 07:59:30;;;;;;;12.20;3.22;;;8.20;99.90;;;;;;5072250;28;20052;-64
2023/03/26 08:02:15;;;;;;;16.05;3.10;;;8.20;99.90;;;;;;5071707;28;20045;-64
2023/03/26 08:04:56;;;;;;;12.43;3.13;;;8.20;99.90;;;;;;5072846;28;20379;-63
2023/03/26 08:07:46;;;;;;;10.68;2.67;;;8.30;99.90;;;;;;5071508;28;20055;-64
2023/03/26 08:10:22;;;;;;;13.55;3.25;;;8.30;99.90;;;;;;5069660;28;20107;-64
2023/03/26 08:12:51;;;;;;;15.55;3.03;;;8.40;99.90;;;;;;5071707;28;20044;-64
2023/03/26 08:15:32;;;;;;;12.18;3.38;;;8.40;99.90;;;;;;5072549;28;20425;-64
2023/03/26 08:18:20;;;;;;;12.20;4.10;;;8.40;99.90;;;;;;5070699;28;20318;-64
2023/03/26 08:20:50;;;;;;;12.73;3.05;;;8.50;99.90;;;;;;5064733;28;20036;-64
2023/03/26 08:23:39;;;;;;;12.38;3.80;;;8.50;99.90;;;;;;5071748;28;20098;-64
2023/03/26 08:26:14;;;;;;;12.13;3.35;;;8.60;99.90;;;;;;5071904;28;20048;-64
2023/03/26 08:29:06;;;;;;;10.63;2.78;;;8.60;99.90;;;;;;5071222;28;20060;-64
2023/03/26 08:31:35;;;;;;;10.75;2.65;;;8.50;99.90;;;;;;5070660;28;20464;-65
2023/03/26 08:34:01;;;;;;;11.38;3.03;;;8.50;99.90;;;;;;5054962;28;20049;-65
2023/03/26 08:36:28;;;;;;;11.70;3.10;;;8.40;99.90;;;;;;5064164;28;20358;-64
2023/03/26 08:38:58;;;;;;;8.75;2.35;;;8.50;99.90;;;;;;5064351;28;20052;-63
2023/03/26 08:42:01;;;;;;;22.08;3.40;;;8.40;99.90;;;;;;5071908;28;20067;-65
2023/03/26 08:44:47;;;;;;;11.38;2.20;;;8.50;99.90;;;;;;5070923;28;20139;-65
2023/03/26 08:47:44;;;;;;;10.15;2.90;;;8.40;99.90;;;;;;5054129;28;20483;-64
2023/03/26 08:50:23;;;;;;;10.68;2.58;;;8.40;99.90;;;;;;5071895;28;20469;-64
2023/03/26 08:53:11;;;;;;;12.23;3.08;;;8.40;99.90;;;;;;5050889;28;20036;-65
2023/03/26 08:56:03;;;;;;;10.52;2.90;;;8.40;99.90;;;;;;5051053;28;20053;-65
2023/03/26 08:58:54;;;;;;;7.47;3.03;;;8.40;99.90;;;;;;5052223;28;20049;-65
2023/03/26 09:01:34;;;;;;;12.70;3.15;;;8.50;99.90;;;;;;5059531;28;20040;-65
2023/03/26 09:04:09;;;;;;;8.38;2.08;;;8.50;99.90;;;;;;5071368;28;20048;-64
2023/03/26 09:06:57;;;;;;;13.20;3.00;;;8.60;99.90;;;;;;5070676;28;20052;-64
2023/03/26 09:09:51;;;;;;;11.45;2.38;;;8.60;99.90;;;;;;5054007;28;20049;-65
2023/03/26 09:12:43;;;;;;;10.13;2.25;;;8.60;99.90;;;;;;5065221;28;20144;-64
2023/03/26 09:15:34;;;;;;;11.48;2.58;;;8.70;99.90;;;;;;5070744;28;20053;-64
2023/03/26 09:18:42;;;;;;;12.90;2.33;;;8.70;99.90;;;;;;5070464;28;20050;-64
2023/03/26 09:21:42;;;;;;;15.55;2.72;;;8.70;99.90;;;;;;5069874;28;20127;-65
2023/03/26 09:24:53;;;;;;;12.50;2.92;;;8.70;99.90;;;;;;5071406;28;20381;-65
2023/03/26 09:27:31;;;;;;;8.88;2.53;;;8.80;99.90;;;;;;4974094;28;20086;-63
2023/03/26 09:30:19;;;;;;;13.73;2.50;;;8.80;99.90;;;;;;4990288;28;20423;-63
2023/03/26 09:33:22;;;;;;;14.20;3.15;;;8.90;99.90;;;;;;5046144;28;20045;-63
2023/03/26 09:35:59;;;;;;;10.88;2.40;;;8.80;99.90;;;;;;5071934;28;20044;-63
2023/03/26 09:38:32;;;;;;;13.80;2.47;;;8.80;99.90;;;;;;5071217;28;20088;-64
2023/03/26 09:41:13;;;;;;;12.73;3.40;;;8.80;99.90;;;;;;5069043;28;20071;-64
2023/03/26 09:44:06;;;;;;;9.90;2.97;;;8.90;99.90;;;;;;5062192;28;20428;-65
2023/03/26 09:47:00;;;;;;;13.88;2.40;;;9.00;99.90;;;;;;5061279;28;20053;-64
2023/03/26 09:49:50;;;;;;;15.68;3.03;;;9.00;99.90;;;;;;5070401;28;20060;-64
2023/03/26 09:52:42;;;;;;;8.07;2.70;;;9.00;99.90;;;;;;5069356;28;20392;-64
2023/03/26 09:55:28;;;;;;;12.68;3.63;;;9.10;99.90;;;;;;5064123;28;20372;-65
2023/03/26 09:58:17;;;;;;;15.45;3.00;;;9.10;99.90;;;;;;5065513;28;20068;-65
2023/03/26 10:01:04;;;;;;;8.60;2.95;;;9.20;99.90;;;;;;5073024;28;20434;-65
2023/03/26 10:03:51;;;;;;;11.70;2.67;;;9.40;99.90;;;;;;5073651;28;20064;-63
2023/03/26 10:06:51;;;;;;;10.20;2.33;;;9.50;99.90;;;;;;5074563;28;20067;-63
2023/03/26 10:09:28;;;;;;;12.35;3.28;;;9.50;99.90;;;;;;5072484;28;20341;-63
2023/03/26 10:12:26;;;;;;;9.13;2.30;;;9.70;99.90;;;;;;5073210;28;20110;-63
2023/03/26 10:15:26;;;;;;;10.02;2.20;;;9.70;99.90;;;;;;5065244;28;20059;-63
2023/03/26 10:18:13;;;;;;;9.77;2.70;;;9.90;99.90;;;;;;5068370;28;20039;-63
2023/03/26 10:21:13;;;;;;;10.60;2.60;;;9.90;99.90;;;;;;5068307;28;20055;-64
2023/03/26 10:24:09;;;;;;;12.32;2.85;;;9.90;99.90;;;;;;5071279;28;20053;-64
2023/03/26 10:26:50;;;;;;;10.00;2.40;;;9.90;99.90;;;;;;5067217;28;20066;-64
2023/03/26 10:29:36;;;;;;;12.32;2.63;;;9.80;99.90;;;;;;5065889;28;20055;-63
2023/03/26 10:32:36;;;;;;;15.68;3.33;;;9.70;99.90;;;;;;5066642;28;20071;-65
2023/03/26 10:35:26;;;;;;;11.25;3.10;;;9.70;99.90;;;;;;5072324;28;20042;-64
2023/03/26 10:38:14;;;;;;;10.23;3.22;;;9.60;99.90;;;;;;5067727;28;20364;-65
2023/03/26 10:40:56;;;;;;;11.85;2.33;;;9.60;99.90;;;;;;5065729;28;20071;-64
2023/03/26 10:43:48;;;;;;;12.93;2.60;;;9.60;99.90;;;;;;5039704;28;20063;-65
2023/03/26 10:46:35;;;;;;;10.13;2.20;;;9.60;99.90;;;;;;5057106;28;20074;-64
2023/03/26 10:49:21;;;;;;;9.75;2.88;;;9.50;99.90;;;;;;5056691;28;20056;-63
2023/03/26 10:51:55;;;;;;;11.02;2.13;;;9.50;99.90;;;;;;5050709;28;20063;-64
2023/03/26 10:54:59;;;;;;;12.13;2.40;;;9.40;99.90;;;;;;5074033;28;20040;-63
2023/03/26 10:57:43;;;;;;;9.50;2.55;;;9.50;99.90;;;;;;5073485;28;20075;-65
2023/03/26 11:00:24;;;;;;;12.90;3.42;;;9.40;99.90;;;;;;5073092;28;20468;-63
2023/03/26 11:03:15;;;;;;;11.00;2.72;;;9.40;99.90;;;;;;5061304;28;20437;-63
2023/03/26 11:05:41;;;;;;;10.02;2.30;;;9.40;99.90;;;;;;5066695;28;20048;-64
2023/03/26 11:08:18;;;;;;;7.15;1.90;;;9.30;99.90;;;;;;5072296;28;20045;-64
2023/03/26 11:11:09;;;;;;;10.10;2.30;;;9.40;99.90;;;;;;5064369;28;20109;-63
2023/03/26 11:13:50;;;;;;;9.63;2.80;;;9.50;99.90;;;;;;5071802;28;20445;-63
2023/03/26 11:16:47;;;;;;;10.68;2.60;;;9.50;99.90;;;;;;5066022;28;20040;-64
2023/03/26 11:19:30;;;;;;;9.38;2.53;;;9.50;99.90;;;;;;5065100;28;20137;-64
2023/03/26 11:22:16;;;;;;;7.72;2.40;;;9.50;99.90;;;;;;5069344;28;20048;-64
2023/03/26 11:25:13;;;;;;;9.75;2.53;;;9.70;99.90;;;;;;5066762;28;20052;-63
2023/03/26 11:28:10;;;;;;;7.95;2.40;;;9.80;99.90;;;;;;5065815;28;20052;-63
2023/03/26 11:30:50;;;;;;;10.73;2.42;;;10.00;99.90;;;;;;5065210;28;20049;-64
2023/03/26 11:33:21;;;;;;;9.93;2.53;;;10.10;99.90;;;;;;5063144;28;20041;-63
2023/03/26 11:35:58;;;;;;;11.02;2.35;;;10.10;99.90;;;;;;5058674;28;20045;-63
2023/03/26 11:38:43;;;;;;;8.48;2.63;;;10.10;99.90;;;;;;5055070;28;20132;-64
2023/03/26 11:41:19;;;;;;;8.65;1.90;;;10.10;99.90;;;;;;5039544;28;20036;-64
2023/03/26 11:43:51;;;;;;;9.77;2.30;;;10.10;99.90;;;;;;5055663;28;20075;-63
2023/03/26 11:46:21;;;;;;;7.00;2.40;;;10.20;99.90;;;;;;5063799;28;20056;-64
2023/03/26 11:48:56;;;;;;;9.32;2.22;;;10.30;99.90;;;;;;5057162;28;20041;-63
2023/03/26 11:51:31;;;;;;;7.70;2.25;;;10.30;99.90;;;;;;5072551;28;20098;-63
2023/03/26 11:53:59;;;;;;;9.57;2.45;;;10.30;99.90;;;;;;5072221;28;20062;-63
2023/03/26 11:56:25;;;;;;;7.55;2.00;;;10.40;99.90;;;;;;5073392;28;20049;-63
2023/03/26 11:58:59;;;;;;;10.10;2.55;;;10.40;99.90;;;;;;5071776;28;20086;-64
2023/03/26 12:01:31;;;;;;;10.02;2.10;;;10.40;99.90;;;;;;5070569;28;20097;-63
2023/03/26 12:04:09;;;;;;;8.65;2.20;;;10.40;99.90;;;;;;5070098;28;20068;-63
2023/03/26 12:06:36;;;;;;;10.10;2.30;;;10.40;99.90;;;;;;5073777;28;20060;-63
2023/03/26 12:09:16;;;;;;;11.30;2.55;;;10.40;99.90;;;;;;5068704;28;20053;-62
2023/03/26 12:11:44;;;;;;;12.55;2.22;;;10.40;99.90;;;;;;5072252;28;20090;-63
2023/03/26 12:14:18;;;;;;;10.82;3.05;;;10.30;99.90;;;;;;5055170;28;20055;-64
2023/03/26 12:17:06;;;;;;;8.57;1.98;;;10.40;99.90;;;;;;5038813;28;20048;-63
2023/03/26 12:19:39;;;;;;;10.55;1.90;;;10.50;99.90;;;;;;5046780;28;20052;-63
2023/03/26 12:22:36;;;;;;;10.05;2.55;;;10.60;99.90;;;;;;5051829;28;20440;-63
2023/03/26 12:25:19;;;;;;;6.40;1.80;;;10.70;99.90;;;;;;5068209;28;20044;-64
2023/03/26 12:27:49;;;;;;;6.35;1.88;;;10.70;99.90;;;;;;5050008;28;20058;-62
2023/03/26 12:30:25;;;;;;;5.65;2.00;;;10.80;99.90;;;;;;5051107;28;20464;-64
2023/03/26 12:32:55;;;;;;;6.53;2.03;;;10.90;99.90;;;;;;5069211;28;20269;-63
2023/03/26 12:35:34;;;;;;;9.63;2.40;;;10.90;99.90;;;;;;5052676;28;20048;-64
2023/03/26 12:38:36;;;;;;;10.48;2.40;;;10.90;99.90;;;;;;5052544;28;20503;-63
2023/03/26 12:41:12;;;;;;;9.25;2.50;;;10.90;99.90;;;;;;5034671;28;20113;-64
2023/03/26 12:43:48;;;;;;;10.35;2.45;;;10.90;99.90;;;;;;5052018;28;20053;-63
2023/03/26 12:46:28;;;;;;;8.05;1.92;;;10.70;99.90;;;;;;5072420;28;20063;-63
2023/03/26 12:49:04;;;;;;;9.13;1.80;;;10.50;99.90;;;;;;5052832;28;20090;-63
2023/03/26 12:51:44;;;;;;;10.25;2.47;;;10.40;99.90;;;;;;5052500;28;20139;-63
2023/03/26 12:54:37;;;;;;;9.50;2.08;;;10.40;99.90;;;;;;5053443;28;20053;-64
2023/03/26 12:57:15;;;;;;;8.93;2.33;;;10.30;99.90;;;;;;5053684;28;20098;-63
2023/03/26 12:59:55;;;;;;;11.65;2.30;;;10.20;99.90;;;;;;5071052;28;20060;-62
2023/03/26 13:02:48;;;;;;;13.70;2.30;;;10.20;99.90;;;;;;5052494;28;20059;-63
2023/03/26 13:05:33;;;;;;;8.95;2.10;;;10.00;99.90;;;;;;5071798;28;20048;-62
2023/03/26 13:08:31;;;;;;;12.00;2.67;;;10.00;99.90;;;;;;5072121;28;20412;-63
2023/03/26 13:11:18;;;;;;;8.60;2.15;;;10.00;99.90;;;;;;5071354;28;20056;-62
2023/03/26 13:14:15;;;;;;;10.30;2.38;;;10.00;99.90;;;;;;5071802;28;20044;-64
2023/03/26 13:17:07;;;;;;;7.10;2.05;;;9.90;99.90;;;;;;5071678;28;20040;-64
2023/03/26 13:19:52;;;;;;;8.57;2.40;;;9.90;99.90;;;;;;5033259;28;20048;-63
2023/03/26 13:22:40;;;;;;;9.98;2.17;;;9.90;99.90;;;;;;5052436;28;20416;-63
2023/03/26 13:25:32;;;;;;;14.43;2.33;;;9.80;99.90;;;;;;5071868;28;20060;-63
2023/03/26 13:28:15;;;;;;;11.88;2.25;;;9.70;99.90;;;;;;5071624;28;20105;-63
2023/03/26 13:30:57;;;;;;;7.90;2.22;;;9.80;99.90;;;;;;5067123;28;20098;-64
2023/03/26 13:33:47;;;;;;;5.85;2.20;;;9.90;99.90;;;;;;5053493;28;20053;-63
2023/03/26 13:36:40;;;;;;;11.07;2.67;;;10.00;99.90;;;;;;5071809;28;20044;-62
2023/03/26 13:39:28;;;;;;;7.72;2.10;;;10.00;99.90;;;;;;5071014;28;20041;-63